sensor_id;sensor_type;location;lat;lon;timestamp;pressure;altitude;pressure_sealevel;temperature;humidity
64853;BME280;56050;55.558;-4.644;2023-04-25T00:00:03;101881.16;;;7.89;49.42
64853;BME280;56050;55.558;-4.644;2023-04-25T00:02:32;101879.94;;;7.87;49.71
64853;BME280;56050;55.558;-4.644;2023-04-25T00:05:00;101874.91;;;7.85;49.70
64853;BME280;56050;55.558;-4.644;2023-04-25T00:07:27;101880.63;;;7.84;49.57
64853;BME280;56050;55.558;-4.644;2023-04-25T00:09:52;101882.09;;;7.81;49.72
64853;BME280;56050;55.558;-4.644;2023-04-25T00:12:17;101878.25;;;7.82;49.45
64853;BME280;56050;55.558;-4.644;2023-04-25T00:14:43;101883.97;;;7.81;49.60
64853;BME280;56050;55.558;-4.644;2023-04-25T00:17:10;101882.75;;;7.78;49.66
64853;BME280;56050;55.558;-4.644;2023-04-25T00:19:36;101884.97;;;7.76;49.60
64853;BME280;56050;55.558;-4.644;2023-04-25T00:22:03;101884.53;;;7.74;49.52
64853;BME280;56050;55.558;-4.644;2023-04-25T00:24:28;101886.78;;;7.72;49.52
64853;BME280;56050;55.558;-4.644;2023-04-25T00:26:54;101887.56;;;7.73;49.40
64853;BME280;56050;55.558;-4.644;2023-04-25T00:29:19;101891.25;;;7.68;49.47
64853;BME280;56050;55.558;-4.644;2023-04-25T00:31:44;101887.69;;;7.64;49.75
64853;BME280;56050;55.558;-4.644;2023-04-25T00:34:10;101883.00;;;7.61;49.72
64853;BME280;56050;55.558;-4.644;2023-04-25T00:36:35;101884.47;;;7.58;49.69
64853;BME280;56050;55.558;-4.644;2023-04-25T00:39:01;101889.38;;;7.56;49.68
64853;BME280;56050;55.558;-4.644;2023-04-25T00:41:26;101887.03;;;7.55;49.58
64853;BME280;56050;55.558;-4.644;2023-04-25T00:43:54;101889.59;;;7.51;49.68
64853;BME280;56050;55.558;-4.644;2023-04-25T00:46:19;101890.25;;;7.48;49.67
64853;BME280;56050;55.558;-4.644;2023-04-25T00:48:45;101889.38;;;7.44;49.49
64853;BME280;56050;55.558;-4.644;2023-04-25T00:51:14;101889.25;;;7.41;49.54
64853;BME280;56050;55.558;-4.644;2023-04-25T00:53:41;101888.81;;;7.39;49.64
64853;BME280;56050;55.558;-4.644;2023-04-25T00:56:06;101882.34;;;7.40;49.54
64853;BME280;56050;55.558;-4.644;2023-04-25T00:58:32;101875.31;;;7.35;49.72
64853;BME280;56050;55.558;-4.644;2023-04-25T01:00:57;101876.75;;;7.33;49.62
64853;BME280;56050;55.558;-4.644;2023-04-25T01:03:23;101881.69;;;7.31;49.57
64853;BME280;56050;55.558;-4.644;2023-04-25T01:05:49;101883.13;;;7.28;49.66
64853;BME280;56050;55.558;-4.644;2023-04-25T01:08:15;101878.75;;;7.24;49.70
64853;BME280;56050;55.558;-4.644;2023-04-25T01:10:41;101897.06;;;7.22;49.64
64853;BME280;56050;55.558;-4.644;2023-04-25T01:13:06;101891.94;;;7.17;49.60
64853;BME280;56050;55.558;-4.644;2023-04-25T01:15:32;101892.47;;;7.10;49.66
64853;BME280;56050;55.558;-4.644;2023-04-25T01:17:58;101903.31;;;7.01;49.75
64853;BME280;56050;55.558;-4.644;2023-04-25T01:20:24;101906.09;;;6.93;49.83
64853;BME280;56050;55.558;-4.644;2023-04-25T01:22:53;101900.19;;;6.87;49.85
64853;BME280;56050;55.558;-4.644;2023-04-25T01:25:19;101895.78;;;6.83;49.93
64853;BME280;56050;55.558;-4.644;2023-04-25T01:27:44;101911.75;;;6.79;49.81
64853;BME280;56050;55.558;-4.644;2023-04-25T01:30:10;101910.84;;;6.75;50.06
64853;BME280;56050;55.558;-4.644;2023-04-25T01:32:36;101917.50;;;6.69;50.09
64853;BME280;56050;55.558;-4.644;2023-04-25T01:35:05;101915.50;;;6.66;50.08
64853;BME280;56050;55.558;-4.644;2023-04-25T01:37:38;101909.69;;;6.64;50.08
64853;BME280;56050;55.558;-4.644;2023-04-25T01:40:04;101910.81;;;6.63;50.16
64853;BME280;56050;55.558;-4.644;2023-04-25T01:42:31;101918.38;;;6.61;50.17
64853;BME280;56050;55.558;-4.644;2023-04-25T01:44:57;101924.84;;;6.60;50.21
64853;BME280;56050;55.558;-4.644;2023-04-25T01:47:23;101922.94;;;6.61;50.08
64853;BME280;56050;55.558;-4.644;2023-04-25T01:49:48;101930.66;;;6.62;49.99
64853;BME280;56050;55.558;-4.644;2023-04-25T01:52:13;101925.75;;;6.64;50.07
64853;BME280;56050;55.558;-4.644;2023-04-25T01:54:40;101922.44;;;6.67;50.06
64853;BME280;56050;55.558;-4.644;2023-04-25T01:57:09;101930.59;;;6.71;49.97
64853;BME280;56050;55.558;-4.644;2023-04-25T01:59:34;101932.28;;;6.75;49.81
64853;BME280;56050;55.558;-4.644;2023-04-25T02:02:00;101930.03;;;6.77;49.96
64853;BME280;56050;55.558;-4.644;2023-04-25T02:04:31;101923.56;;;6.78;50.05
64853;BME280;56050;55.558;-4.644;2023-04-25T02:06:57;101930.94;;;6.81;49.87
64853;BME280;56050;55.558;-4.644;2023-04-25T02:09:22;101929.16;;;6.85;49.88
64853;BME280;56050;55.558;-4.644;2023-04-25T02:11:48;101936.22;;;6.90;49.79
64853;BME280;56050;55.558;-4.644;2023-04-25T02:14:14;101940.44;;;6.91;49.86
64853;BME280;56050;55.558;-4.644;2023-04-25T02:16:39;101932.75;;;6.89;49.70
64853;BME280;56050;55.558;-4.644;2023-04-25T02:19:05;101931.63;;;6.90;49.83
64853;BME280;56050;55.558;-4.644;2023-04-25T02:21:30;101930.09;;;6.89;49.63
64853;BME280;56050;55.558;-4.644;2023-04-25T02:23:56;101931.19;;;6.88;49.78
64853;BME280;56050;55.558;-4.644;2023-04-25T02:26:22;101936.44;;;6.85;49.69
64853;BME280;56050;55.558;-4.644;2023-04-25T02:28:49;101927.50;;;6.81;49.88
64853;BME280;56050;55.558;-4.644;2023-04-25T02:31:15;101933.84;;;6.76;49.83
64853;BME280;56050;55.558;-4.644;2023-04-25T02:33:40;101942.53;;;6.73;49.90
64853;BME280;56050;55.558;-4.644;2023-04-25T02:36:06;101939.38;;;6.71;49.97
64853;BME280;56050;55.558;-4.644;2023-04-25T02:38:31;101946.53;;;6.67;49.96
64853;BME280;56050;55.558;-4.644;2023-04-25T02:40:56;101947.97;;;6.65;49.92
64853;BME280;56050;55.558;-4.644;2023-04-25T02:43:22;101947.84;;;6.61;50.01
64853;BME280;56050;55.558;-4.644;2023-04-25T02:45:47;101946.16;;;6.57;50.29
64853;BME280;56050;55.558;-4.644;2023-04-25T02:48:13;101944.91;;;6.54;50.41
64853;BME280;56050;55.558;-4.644;2023-04-25T02:50:38;101941.00;;;6.52;50.18
64853;BME280;56050;55.558;-4.644;2023-04-25T02:53:04;101936.75;;;6.50;50.29
64853;BME280;56050;55.558;-4.644;2023-04-25T02:55:29;101942.09;;;6.50;50.29
64853;BME280;56050;55.558;-4.644;2023-04-25T02:57:54;101945.22;;;6.53;50.30
64853;BME280;56050;55.558;-4.644;2023-04-25T03:00:22;101942.91;;;6.51;50.19
64853;BME280;56050;55.558;-4.644;2023-04-25T03:02:48;101944.00;;;6.50;50.06
64853;BME280;56050;55.558;-4.644;2023-04-25T03:05:13;101940.44;;;6.46;49.99
64853;BME280;56050;55.558;-4.644;2023-04-25T03:07:38;101935.25;;;6.41;50.20
64853;BME280;56050;55.558;-4.644;2023-04-25T03:10:06;101922.72;;;6.33;50.07
64853;BME280;56050;55.558;-4.644;2023-04-25T03:12:32;101914.13;;;6.27;50.27
64853;BME280;56050;55.558;-4.644;2023-04-25T03:14:57;101924.38;;;6.25;50.36
64853;BME280;56050;55.558;-4.644;2023-04-25T03:17:22;101918.13;;;6.21;50.26
64853;BME280;56050;55.558;-4.644;2023-04-25T03:19:48;101918.78;;;6.18;50.41
64853;BME280;56050;55.558;-4.644;2023-04-25T03:22:13;101927.44;;;6.15;50.43
64853;BME280;56050;55.558;-4.644;2023-04-25T03:24:38;101928.75;;;6.09;50.38
64853;BME280;56050;55.558;-4.644;2023-04-25T03:27:04;101930.03;;;6.03;50.59
64853;BME280;56050;55.558;-4.644;2023-04-25T03:29:29;101927.88;;;5.97;50.58
64853;BME280;56050;55.558;-4.644;2023-04-25T03:31:55;101922.28;;;5.89;50.63
64853;BME280;56050;55.558;-4.644;2023-04-25T03:34:20;101924.31;;;5.84;50.67
64853;BME280;56050;55.558;-4.644;2023-04-25T03:36:49;101926.06;;;5.80;50.94
64853;BME280;56050;55.558;-4.644;2023-04-25T03:39:14;101923.72;;;5.78;50.96
64853;BME280;56050;55.558;-4.644;2023-04-25T03:41:40;101925.47;;;5.74;50.99
64853;BME280;56050;55.558;-4.644;2023-04-25T03:44:05;101924.56;;;5.70;50.84
64853;BME280;56050;55.558;-4.644;2023-04-25T03:46:30;101924.75;;;5.65;50.88
64853;BME280;56050;55.558;-4.644;2023-04-25T03:48:56;101927.91;;;5.59;50.99
64853;BME280;56050;55.558;-4.644;2023-04-25T03:51:21;101925.44;;;5.54;50.92
64853;BME280;56050;55.558;-4.644;2023-04-25T03:53:47;101926.06;;;5.51;50.95
64853;BME280;56050;55.558;-4.644;2023-04-25T03:56:13;101930.63;;;5.50;51.04
64853;BME280;56050;55.558;-4.644;2023-04-25T03:58:38;101929.09;;;5.49;51.16
64853;BME280;56050;55.558;-4.644;2023-04-25T04:01:03;101929.09;;;5.49;50.98
64853;BME280;56050;55.558;-4.644;2023-04-25T04:03:33;101933.19;;;5.47;51.25
64853;BME280;56050;55.558;-4.644;2023-04-25T04:05:59;101928.34;;;5.40;51.24
64853;BME280;56050;55.558;-4.644;2023-04-25T04:08:24;101930.84;;;5.37;51.41
64853;BME280;56050;55.558;-4.644;2023-04-25T04:10:50;101920.81;;;5.33;51.16
64853;BME280;56050;55.558;-4.644;2023-04-25T04:13:15;101928.03;;;5.33;51.39
64853;BME280;56050;55.558;-4.644;2023-04-25T04:15:40;101933.84;;;5.35;51.24
64853;BME280;56050;55.558;-4.644;2023-04-25T04:18:06;101931.50;;;5.33;51.17
64853;BME280;56050;55.558;-4.644;2023-04-25T04:20:31;101926.78;;;5.30;51.34
64853;BME280;56050;55.558;-4.644;2023-04-25T04:22:57;101932.78;;;5.27;51.10
64853;BME280;56050;55.558;-4.644;2023-04-25T04:25:22;101940.66;;;5.24;51.19
64853;BME280;56050;55.558;-4.644;2023-04-25T04:27:49;101932.81;;;5.19;51.14
64853;BME280;56050;55.558;-4.644;2023-04-25T04:30:17;101934.25;;;5.16;51.14
64853;BME280;56050;55.558;-4.644;2023-04-25T04:32:42;101941.47;;;5.16;51.18
64853;BME280;56050;55.558;-4.644;2023-04-25T04:35:08;101936.59;;;5.18;51.05
64853;BME280;56050;55.558;-4.644;2023-04-25T04:37:34;101948.84;;;5.19;51.11
64853;BME280;56050;55.558;-4.644;2023-04-25T04:39:59;101956.88;;;5.19;50.94
64853;BME280;56050;55.558;-4.644;2023-04-25T04:42:30;101947.28;;;5.18;51.01
64853;BME280;56050;55.558;-4.644;2023-04-25T04:44:56;101944.59;;;5.18;50.91
64853;BME280;56050;55.558;-4.644;2023-04-25T04:47:23;101949.16;;;5.17;50.99
64853;BME280;56050;55.558;-4.644;2023-04-25T04:49:49;101946.94;;;5.19;51.00
64853;BME280;56050;55.558;-4.644;2023-04-25T04:52:15;101942.72;;;5.18;51.02
64853;BME280;56050;55.558;-4.644;2023-04-25T04:54:40;101956.88;;;5.19;50.95
64853;BME280;56050;55.558;-4.644;2023-04-25T04:57:05;101955.28;;;5.18;51.03
64853;BME280;56050;55.558;-4.644;2023-04-25T04:59:31;101944.94;;;5.16;51.03
64853;BME280;56050;55.558;-4.644;2023-04-25T05:01:56;101952.16;;;5.16;50.93
64853;BME280;56050;55.558;-4.644;2023-04-25T05:04:21;101947.13;;;5.14;50.86
64853;BME280;56050;55.558;-4.644;2023-04-25T05:06:47;101958.94;;;5.13;51.19
64853;BME280;56050;55.558;-4.644;2023-04-25T05:09:12;101945.88;;;5.12;51.06
64853;BME280;56050;55.558;-4.644;2023-04-25T05:11:38;101955.00;;;5.11;51.29
64853;BME280;56050;55.558;-4.644;2023-04-25T05:14:03;101956.88;;;5.10;51.14
64853;BME280;56050;55.558;-4.644;2023-04-25T05:16:28;101960.34;;;5.11;51.28
64853;BME280;56050;55.558;-4.644;2023-04-25T05:18:54;101959.22;;;5.12;51.23
64853;BME280;56050;55.558;-4.644;2023-04-25T05:21:19;101966.44;;;5.11;51.11
64853;BME280;56050;55.558;-4.644;2023-04-25T05:23:45;101958.31;;;5.08;51.12
64853;BME280;56050;55.558;-4.644;2023-04-25T05:26:10;101956.72;;;5.07;51.29
64853;BME280;56050;55.558;-4.644;2023-04-25T05:28:39;101960.81;;;5.04;51.37
64853;BME280;56050;55.558;-4.644;2023-04-25T05:31:06;101959.13;;;5.00;51.58
64853;BME280;56050;55.558;-4.644;2023-04-25T05:33:31;101966.19;;;4.96;51.54
64853;BME280;56050;55.558;-4.644;2023-04-25T05:35:57;101969.47;;;4.93;51.66
64853;BME280;56050;55.558;-4.644;2023-04-25T05:38:22;101965.22;;;4.92;51.85
64853;BME280;56050;55.558;-4.644;2023-04-25T05:40:48;101975.16;;;4.91;51.62
64853;BME280;56050;55.558;-4.644;2023-04-25T05:43:13;101964.47;;;4.91;51.81
64853;BME280;56050;55.558;-4.644;2023-04-25T05:45:38;101968.69;;;4.92;51.72
64853;BME280;56050;55.558;-4.644;2023-04-25T05:48:04;101964.59;;;4.95;52.02
64853;BME280;56050;55.558;-4.644;2023-04-25T05:50:29;101968.06;;;4.95;51.86
64853;BME280;56050;55.558;-4.644;2023-04-25T05:52:55;101978.75;;;4.95;51.93
64853;BME280;56050;55.558;-4.644;2023-04-25T05:55:20;101975.28;;;4.95;52.05
64853;BME280;56050;55.558;-4.644;2023-04-25T05:57:46;101985.34;;;4.98;52.07
64853;BME280;56050;55.558;-4.644;2023-04-25T06:00:13;101981.25;;;5.00;52.11
64853;BME280;56050;55.558;-4.644;2023-04-25T06:02:40;101981.84;;;5.06;52.02
64853;BME280;56050;55.558;-4.644;2023-04-25T06:05:05;101973.38;;;5.12;51.99
64853;BME280;56050;55.558;-4.644;2023-04-25T06:07:31;101985.59;;;5.22;51.81
64853;BME280;56050;55.558;-4.644;2023-04-25T06:09:57;101983.38;;;5.32;51.78
64853;BME280;56050;55.558;-4.644;2023-04-25T06:12:22;101984.72;;;5.47;51.73
64853;BME280;56050;55.558;-4.644;2023-04-25T06:14:47;101982.97;;;5.60;51.58
64853;BME280;56050;55.558;-4.644;2023-04-25T06:17:13;101981.50;;;5.71;51.54
64853;BME280;56050;55.558;-4.644;2023-04-25T06:19:38;101998.25;;;5.88;51.71
64853;BME280;56050;55.558;-4.644;2023-04-25T06:22:03;101995.16;;;6.07;51.55
64853;BME280;56050;55.558;-4.644;2023-04-25T06:24:29;101990.41;;;6.33;51.70
64853;BME280;56050;55.558;-4.644;2023-04-25T06:26:55;101999.94;;;6.64;51.38
64853;BME280;56050;55.558;-4.644;2023-04-25T06:29:20;101995.72;;;6.95;51.24
64853;BME280;56050;55.558;-4.644;2023-04-25T06:31:46;101992.91;;;7.25;51.30
64853;BME280;56050;55.558;-4.644;2023-04-25T06:34:11;101997.63;;;7.52;51.24
64853;BME280;56050;55.558;-4.644;2023-04-25T06:36:37;101990.94;;;7.82;50.85
64853;BME280;56050;55.558;-4.644;2023-04-25T06:39:02;101992.25;;;8.12;50.98
64853;BME280;56050;55.558;-4.644;2023-04-25T06:41:27;101997.00;;;8.43;50.73
64853;BME280;56050;55.558;-4.644;2023-04-25T06:43:53;101993.66;;;8.74;50.66
64853;BME280;56050;55.558;-4.644;2023-04-25T06:46:18;101994.78;;;9.01;50.51
64853;BME280;56050;55.558;-4.644;2023-04-25T06:48:44;101995.88;;;9.27;50.35
64853;BME280;56050;55.558;-4.644;2023-04-25T06:51:09;102006.47;;;9.52;50.14
64853;BME280;56050;55.558;-4.644;2023-04-25T06:53:35;102008.19;;;9.75;49.81
64853;BME280;56050;55.558;-4.644;2023-04-25T06:56:00;102013.97;;;9.93;49.56
64853;BME280;56050;55.558;-4.644;2023-04-25T06:58:26;102007.06;;;10.11;49.47
64853;BME280;56050;55.558;-4.644;2023-04-25T07:00:51;102009.78;;;10.27;49.34
64853;BME280;56050;55.558;-4.644;2023-04-25T07:03:17;102007.03;;;10.42;49.25
64853;BME280;56050;55.558;-4.644;2023-04-25T07:05:42;102012.72;;;10.56;49.24
64853;BME280;56050;55.558;-4.644;2023-04-25T07:08:08;102012.22;;;10.70;48.95
64853;BME280;56050;55.558;-4.644;2023-04-25T07:10:33;102023.63;;;10.83;48.83
64853;BME280;56050;55.558;-4.644;2023-04-25T07:12:59;102012.69;;;10.95;48.61
64853;BME280;56050;55.558;-4.644;2023-04-25T07:15:24;102014.69;;;10.98;48.37
64853;BME280;56050;55.558;-4.644;2023-04-25T07:17:49;102008.72;;;10.89;48.28
64853;BME280;56050;55.558;-4.644;2023-04-25T07:20:15;102004.81;;;10.86;48.58
64853;BME280;56050;55.558;-4.644;2023-04-25T07:22:41;102011.19;;;10.97;48.60
64853;BME280;56050;55.558;-4.644;2023-04-25T07:25:06;102015.34;;;11.14;48.29
64853;BME280;56050;55.558;-4.644;2023-04-25T07:27:33;102015.72;;;11.35;48.36
64853;BME280;56050;55.558;-4.644;2023-04-25T07:29:59;102007.09;;;11.49;48.05
64853;BME280;56050;55.558;-4.644;2023-04-25T07:32:25;102015.84;;;11.65;48.08
64853;BME280;56050;55.558;-4.644;2023-04-25T07:34:51;102006.19;;;11.87;47.86
64853;BME280;56050;55.558;-4.644;2023-04-25T07:37:17;102000.69;;;12.06;47.60
64853;BME280;56050;55.558;-4.644;2023-04-25T07:39:44;102004.00;;;12.22;47.35
64853;BME280;56050;55.558;-4.644;2023-04-25T07:42:11;102005.63;;;12.30;46.93
64853;BME280;56050;55.558;-4.644;2023-04-25T07:44:37;102011.00;;;12.26;46.83
64853;BME280;56050;55.558;-4.644;2023-04-25T07:47:06;102008.53;;;12.14;46.40
64853;BME280;56050;55.558;-4.644;2023-04-25T07:49:33;102001.94;;;12.12;46.83
64853;BME280;56050;55.558;-4.644;2023-04-25T07:51:59;102012.03;;;12.18;46.35
64853;BME280;56050;55.558;-4.644;2023-04-25T07:54:24;102013.09;;;12.10;46.17
64853;BME280;56050;55.558;-4.644;2023-04-25T07:56:50;102013.78;;;12.04;46.26
64853;BME280;56050;55.558;-4.644;2023-04-25T07:59:15;102009.19;;;12.08;46.55
64853;BME280;56050;55.558;-4.644;2023-04-25T08:01:41;102016.38;;;12.23;46.47
64853;BME280;56050;55.558;-4.644;2023-04-25T08:04:06;102016.97;;;12.39;46.23
64853;BME280;56050;55.558;-4.644;2023-04-25T08:06:32;102021.25;;;12.44;44.87
64853;BME280;56050;55.558;-4.644;2023-04-25T08:08:57;102016.44;;;12.30;44.08
64853;BME280;56050;55.558;-4.644;2023-04-25T08:11:23;102020.00;;;12.08;44.77
64853;BME280;56050;55.558;-4.644;2023-04-25T08:13:48;102015.63;;;12.00;45.34
64853;BME280;56050;55.558;-4.644;2023-04-25T08:16:14;102025.41;;;12.08;45.62
64853;BME280;56050;55.558;-4.644;2023-04-25T08:18:39;102024.34;;;12.16;45.27
64853;BME280;56050;55.558;-4.644;2023-04-25T08:21:05;102021.78;;;12.23;45.41
64853;BME280;56050;55.558;-4.644;2023-04-25T08:23:31;102023.03;;;12.32;45.55
64853;BME280;56050;55.558;-4.644;2023-04-25T08:25:57;102027.13;;;12.49;45.48
64853;BME280;56050;55.558;-4.644;2023-04-25T08:28:22;102023.78;;;12.59;44.37
64853;BME280;56050;55.558;-4.644;2023-04-25T08:30:48;102033.69;;;12.48;44.79
64853;BME280;56050;55.558;-4.644;2023-04-25T08:33:13;102032.84;;;12.44;45.06
64853;BME280;56050;55.558;-4.644;2023-04-25T08:35:39;102026.38;;;12.52;45.05
64853;BME280;56050;55.558;-4.644;2023-04-25T08:38:04;102028.13;;;12.67;45.13
64853;BME280;56050;55.558;-4.644;2023-04-25T08:40:35;102027.81;;;12.72;44.81
64853;BME280;56050;55.558;-4.644;2023-04-25T08:43:03;102033.94;;;12.69;44.46
64853;BME280;56050;55.558;-4.644;2023-04-25T08:45:31;102039.81;;;12.45;42.68
64853;BME280;56050;55.558;-4.644;2023-04-25T08:47:57;102035.84;;;12.09;43.20
64853;BME280;56050;55.558;-4.644;2023-04-25T08:50:24;102037.75;;;11.83;43.91
64853;BME280;56050;55.558;-4.644;2023-04-25T08:52:53;102033.91;;;11.61;43.82
64853;BME280;56050;55.558;-4.644;2023-04-25T08:55:21;102034.34;;;11.40;43.96
64853;BME280;56050;55.558;-4.644;2023-04-25T08:57:47;102035.91;;;11.22;44.38
64853;BME280;56050;55.558;-4.644;2023-04-25T09:00:13;102035.31;;;11.09;44.26
64853;BME280;56050;55.558;-4.644;2023-04-25T09:02:39;102039.94;;;10.90;43.88
64853;BME280;56050;55.558;-4.644;2023-04-25T09:05:06;102036.84;;;10.69;44.16
64853;BME280;56050;55.558;-4.644;2023-04-25T09:07:32;102038.06;;;10.55;44.55
64853;BME280;56050;55.558;-4.644;2023-04-25T09:09:58;102040.00;;;10.55;44.84
64853;BME280;56050;55.558;-4.644;2023-04-25T09:12:27;102031.19;;;10.58;44.64
64853;BME280;56050;55.558;-4.644;2023-04-25T09:17:33;102032.38;;;10.41;44.36
64853;BME280;56050;55.558;-4.644;2023-04-25T09:20:08;102027.47;;;10.28;44.42
64853;BME280;56050;55.558;-4.644;2023-04-25T09:22:36;102038.03;;;10.17;44.31
64853;BME280;56050;55.558;-4.644;2023-04-25T09:25:03;102037.25;;;10.01;44.15
64853;BME280;56050;55.558;-4.644;2023-04-25T09:27:29;102033.69;;;9.81;44.33
64853;BME280;56050;55.558;-4.644;2023-04-25T09:29:58;102036.03;;;9.67;44.38
64853;BME280;56050;55.558;-4.644;2023-04-25T09:32:25;102036.06;;;9.52;44.48
64853;BME280;56050;55.558;-4.644;2023-04-25T09:34:53;102026.03;;;9.36;44.52
64853;BME280;56050;55.558;-4.644;2023-04-25T09:37:20;102030.38;;;9.25;44.60
64853;BME280;56050;55.558;-4.644;2023-04-25T09:39:47;102031.66;;;9.16;44.69
64853;BME280;56050;55.558;-4.644;2023-04-25T09:42:14;102021.06;;;9.07;44.81
64853;BME280;56050;55.558;-4.644;2023-04-25T09:44:45;102021.31;;;9.02;44.76
64853;BME280;56050;55.558;-4.644;2023-04-25T09:47:13;102028.50;;;8.98;44.47
64853;BME280;56050;55.558;-4.644;2023-04-25T09:49:40;102030.56;;;8.89;44.42
64853;BME280;56050;55.558;-4.644;2023-04-25T09:52:07;102022.03;;;8.87;44.51
64853;BME280;56050;55.558;-4.644;2023-04-25T09:54:32;102031.78;;;8.92;44.76
64853;BME280;56050;55.558;-4.644;2023-04-25T09:56:57;102036.22;;;9.00;44.87
64853;BME280;56050;55.558;-4.644;2023-04-25T09:59:29;102026.44;;;9.07;44.41
64853;BME280;56050;55.558;-4.644;2023-04-25T10:01:57;102038.94;;;9.15;44.43
64853;BME280;56050;55.558;-4.644;2023-04-25T10:04:24;102038.00;;;9.23;44.17
64853;BME280;56050;55.558;-4.644;2023-04-25T10:06:53;102037.22;;;9.23;43.74
64853;BME280;56050;55.558;-4.644;2023-04-25T10:09:20;102039.38;;;9.17;44.26
64853;BME280;56050;55.558;-4.644;2023-04-25T10:11:49;102047.13;;;9.19;44.37
64853;BME280;56050;55.558;-4.644;2023-04-25T10:14:16;102050.34;;;9.24;44.51
64853;BME280;56050;55.558;-4.644;2023-04-25T10:16:42;102044.59;;;9.26;44.20
64853;BME280;56050;55.558;-4.644;2023-04-25T10:19:09;102037.75;;;9.28;44.34
64853;BME280;56050;55.558;-4.644;2023-04-25T10:21:39;102035.25;;;9.35;44.18
64853;BME280;56050;55.558;-4.644;2023-04-25T10:24:06;102048.97;;;9.46;44.19
64853;BME280;56050;55.558;-4.644;2023-04-25T10:26:32;102046.44;;;9.53;44.00
64853;BME280;56050;55.558;-4.644;2023-04-25T10:29:02;102044.97;;;9.56;43.99
64853;BME280;56050;55.558;-4.644;2023-04-25T10:31:29;102038.06;;;9.55;43.71
64853;BME280;56050;55.558;-4.644;2023-04-25T10:33:55;102038.31;;;9.50;42.84
64853;BME280;56050;55.558;-4.644;2023-04-25T10:36:22;102039.69;;;9.43;42.97
64853;BME280;56050;55.558;-4.644;2023-04-25T10:38:49;102033.88;;;9.41;43.13
64853;BME280;56050;55.558;-4.644;2023-04-25T10:41:18;102037.69;;;9.40;43.49
64853;BME280;56050;55.558;-4.644;2023-04-25T10:43:47;102035.69;;;9.37;43.15
64853;BME280;56050;55.558;-4.644;2023-04-25T10:46:22;102032.91;;;9.34;41.97
64853;BME280;56050;55.558;-4.644;2023-04-25T10:48:55;102040.09;;;9.30;42.20
64853;BME280;56050;55.558;-4.644;2023-04-25T10:51:21;102037.31;;;9.26;41.44
64853;BME280;56050;55.558;-4.644;2023-04-25T10:56:27;102037.69;;;9.25;41.65
64853;BME280;56050;55.558;-4.644;2023-04-25T10:59:10;102043.81;;;9.25;41.90
64853;BME280;56050;55.558;-4.644;2023-04-25T11:04:02;102042.59;;;9.23;41.93
64853;BME280;56050;55.558;-4.644;2023-04-25T11:06:30;102040.00;;;9.26;42.16
64853;BME280;56050;55.558;-4.644;2023-04-25T11:09:00;102034.03;;;9.33;42.29
64853;BME280;56050;55.558;-4.644;2023-04-25T11:11:26;102030.84;;;9.43;42.38
64853;BME280;56050;55.558;-4.644;2023-04-25T11:13:52;102034.47;;;9.51;42.29
64853;BME280;56050;55.558;-4.644;2023-04-25T11:16:17;102035.69;;;9.53;42.51
64853;BME280;56050;55.558;-4.644;2023-04-25T11:18:44;102037.44;;;9.61;42.53
64853;BME280;56050;55.558;-4.644;2023-04-25T11:21:10;102037.94;;;9.67;42.29
64853;BME280;56050;55.558;-4.644;2023-04-25T11:23:36;102035.97;;;9.64;42.20
64853;BME280;56050;55.558;-4.644;2023-04-25T11:26:05;102030.13;;;9.62;42.55
64853;BME280;56050;55.558;-4.644;2023-04-25T11:28:30;102024.84;;;9.65;42.59
64853;BME280;56050;55.558;-4.644;2023-04-25T11:30:56;102022.59;;;9.67;42.55
64853;BME280;56050;55.558;-4.644;2023-04-25T11:33:25;102022.59;;;9.67;42.32
64853;BME280;56050;55.558;-4.644;2023-04-25T11:35:55;102018.78;;;9.68;42.16
64853;BME280;56050;55.558;-4.644;2023-04-25T11:38:22;102019.22;;;9.70;42.11
64853;BME280;56050;55.558;-4.644;2023-04-25T11:40:54;102023.91;;;9.73;42.22
64853;BME280;56050;55.558;-4.644;2023-04-25T11:43:20;102015.22;;;9.80;42.21
64853;BME280;56050;55.558;-4.644;2023-04-25T11:45:49;102013.38;;;9.84;41.57
64853;BME280;56050;55.558;-4.644;2023-04-25T11:48:17;102002.63;;;9.84;41.40
64853;BME280;56050;55.558;-4.644;2023-04-25T11:50:42;102009.47;;;9.81;41.13
64853;BME280;56050;55.558;-4.644;2023-04-25T11:53:08;102008.97;;;9.76;40.98
64853;BME280;56050;55.558;-4.644;2023-04-25T11:55:34;102008.13;;;9.72;41.22
64853;BME280;56050;55.558;-4.644;2023-04-25T11:58:00;102005.41;;;9.72;40.98
64853;BME280;56050;55.558;-4.644;2023-04-25T12:00:26;102002.38;;;9.73;41.16
64853;BME280;56050;55.558;-4.644;2023-04-25T12:02:53;102004.72;;;9.75;41.16
64853;BME280;56050;55.558;-4.644;2023-04-25T12:05:20;102000.19;;;9.79;41.18
64853;BME280;56050;55.558;-4.644;2023-04-25T12:07:48;102006.00;;;9.81;40.67
64853;BME280;56050;55.558;-4.644;2023-04-25T12:10:15;101996.28;;;9.76;40.81
64853;BME280;56050;55.558;-4.644;2023-04-25T12:12:42;102002.47;;;9.77;41.03
64853;BME280;56050;55.558;-4.644;2023-04-25T12:15:16;102002.19;;;9.82;40.88
64853;BME280;56050;55.558;-4.644;2023-04-25T12:17:48;101998.88;;;9.88;41.14
64853;BME280;56050;55.558;-4.644;2023-04-25T12:20:18;101995.13;;;9.93;40.40
64853;BME280;56050;55.558;-4.644;2023-04-25T12:22:47;101998.63;;;9.93;40.20
64853;BME280;56050;55.558;-4.644;2023-04-25T12:25:39;101986.28;;;9.92;40.18
64853;BME280;56050;55.558;-4.644;2023-04-25T12:28:19;101985.94;;;9.94;40.03
64853;BME280;56050;55.558;-4.644;2023-04-25T12:31:02;101992.53;;;9.96;40.58
64853;BME280;56050;55.558;-4.644;2023-04-25T12:33:31;101992.69;;;10.03;40.49
64853;BME280;56050;55.558;-4.644;2023-04-25T12:35:58;101990.88;;;10.08;40.39
64853;BME280;56050;55.558;-4.644;2023-04-25T12:38:28;101990.63;;;10.13;40.55
64853;BME280;56050;55.558;-4.644;2023-04-25T12:40:55;101983.03;;;10.18;40.32
64853;BME280;56050;55.558;-4.644;2023-04-25T12:43:21;101991.72;;;10.27;40.50
64853;BME280;56050;55.558;-4.644;2023-04-25T12:45:50;101988.72;;;10.32;39.72
64853;BME280;56050;55.558;-4.644;2023-04-25T12:48:17;101979.50;;;10.33;39.83
64853;BME280;56050;55.558;-4.644;2023-04-25T12:50:43;101982.66;;;10.35;39.69